createdAt,value
2019-01-11T00:01:18.827Z,9.10
2019-01-11T00:03:48.337Z,11.63
2019-01-11T00:06:17.804Z,13.57
2019-01-11T00:08:47.311Z,15.73
2019-01-11T00:11:16.829Z,12.83
2019-01-11T00:13:46.370Z,15.17
2019-01-11T00:16:15.837Z,9.80
2019-01-11T00:19:07.247Z,14.03
2019-01-11T00:21:56.560Z,11.00
2019-01-11T00:24:26.030Z,13.33
2019-01-11T00:26:55.539Z,15.10
2019-01-11T00:29:25.027Z,13.30
2019-01-11T00:31:54.790Z,15.20
2019-01-11T00:34:24.294Z,17.10
2019-01-11T00:36:53.801Z,13.07
2019-01-11T00:39:23.519Z,12.93
2019-01-11T00:41:53.015Z,12.50
2019-01-11T00:44:22.488Z,8.27
2019-01-11T00:46:51.998Z,15.00
2019-01-11T00:49:21.497Z,15.17
2019-01-11T00:51:51.259Z,11.68
2019-01-11T00:54:39.860Z,13.73
2019-01-11T00:57:09.356Z,15.07
2019-01-11T00:59:38.838Z,19.30
2019-01-11T01:02:08.406Z,13.50
2019-01-11T01:04:37.978Z,13.60
2019-01-11T01:07:07.480Z,10.77
2019-01-11T01:09:36.986Z,13.00
2019-01-11T01:12:07.141Z,13.27
2019-01-11T01:14:36.888Z,13.45
2019-01-11T01:17:06.537Z,14.60
2019-01-11T01:19:36.008Z,11.20
2019-01-11T01:22:05.591Z,8.50
2019-01-11T01:24:35.089Z,11.70
2019-01-11T01:27:04.663Z,11.10
2019-01-11T01:29:53.243Z,11.40
2019-01-11T01:32:41.776Z,9.97
2019-01-11T01:35:11.326Z,14.40
2019-01-11T01:37:41.099Z,12.30
2019-01-11T01:40:11.568Z,15.17
2019-01-11T01:42:42.855Z,13.10
2019-01-11T01:48:33.621Z,10.93
2019-01-11T01:51:03.087Z,9.93
2019-01-11T01:53:32.583Z,11.70
2019-01-11T01:56:02.054Z,15.87
2019-01-11T01:58:31.540Z,7.72
2019-01-11T02:01:20.110Z,12.40
2019-01-11T02:03:49.611Z,11.07
2019-01-11T02:06:19.090Z,12.43
2019-01-11T02:08:48.584Z,10.13
2019-01-11T02:11:18.059Z,13.77
2019-01-11T02:13:47.553Z,12.27
2019-01-11T02:16:17.030Z,7.70
2019-01-11T02:18:46.596Z,9.60
2019-01-11T02:21:16.107Z,13.78
2019-01-11T02:26:26.355Z,7.43
2019-01-11T02:28:55.839Z,9.87
2019-01-11T02:31:25.305Z,9.83
2019-01-11T02:33:54.806Z,10.30
2019-01-11T02:36:24.340Z,9.87
2019-01-11T02:38:54.152Z,7.58
2019-01-11T02:41:24.175Z,9.28
2019-01-11T02:43:54.167Z,7.97
2019-01-11T02:46:24.097Z,8.50
2019-01-11T02:48:54.002Z,8.95
2019-01-11T02:51:42.570Z,7.50
2019-01-11T02:54:18.010Z,10.55
2019-01-11T02:56:47.476Z,7.70
2019-01-11T02:59:36.282Z,11.30
2019-01-11T03:04:54.294Z,11.37
2019-01-11T03:07:24.153Z,10.35
2019-01-11T03:10:34.054Z,11.25
2019-01-11T03:13:03.688Z,9.90
2019-01-11T03:15:33.264Z,9.20
2019-01-11T03:18:02.751Z,11.40
2019-01-11T03:20:32.319Z,10.90
2019-01-11T03:23:02.183Z,9.77
2019-01-11T03:25:31.681Z,7.80
2019-01-11T03:28:01.139Z,8.45
2019-01-11T03:30:30.631Z,9.20
2019-01-11T03:33:00.109Z,11.93
2019-01-11T03:35:29.592Z,10.57
2019-01-11T03:37:59.058Z,9.37
2019-01-11T03:40:47.850Z,10.10
2019-01-11T03:43:17.535Z,13.50
2019-01-11T03:45:53.960Z,8.53
2019-01-11T03:48:23.432Z,8.87
2019-01-11T03:50:52.918Z,9.83
2019-01-11T03:53:22.404Z,10.57
2019-01-11T03:55:51.876Z,9.63
2019-01-11T03:58:21.404Z,13.40
2019-01-11T04:00:50.869Z,10.70
2019-01-11T04:03:20.454Z,10.72
2019-01-11T04:05:49.923Z,11.13
2019-01-11T04:08:19.482Z,11.23
2019-01-11T04:10:49.012Z,9.63
2019-01-11T04:13:18.570Z,9.38
2019-01-11T04:15:48.031Z,9.87
2019-01-11T04:18:36.566Z,10.77
2019-01-11T04:21:06.125Z,10.20
2019-01-11T04:23:35.628Z,15.00
2019-01-11T04:26:24.252Z,10.70
2019-01-11T04:28:53.757Z,9.97
2019-01-11T04:31:23.235Z,13.33
2019-01-11T04:33:52.815Z,11.93
2019-01-11T04:36:22.287Z,12.47
2019-01-11T04:38:51.791Z,10.70
2019-01-11T04:41:21.360Z,12.30
2019-01-11T04:43:50.866Z,12.07
2019-01-11T04:46:20.353Z,12.82
2019-01-11T04:48:49.843Z,11.73
2019-01-11T04:51:19.410Z,10.10
2019-01-11T04:56:28.928Z,14.47
2019-01-11T04:58:58.463Z,11.50
2019-01-11T05:01:27.972Z,11.00
2019-01-11T05:04:09.143Z,12.37
2019-01-11T05:06:38.657Z,14.15
2019-01-11T05:09:08.142Z,14.97
2019-01-11T05:11:37.658Z,10.95
2019-01-11T05:14:07.182Z,10.87
2019-01-11T05:16:39.547Z,13.40
2019-01-11T05:19:16.861Z,12.53
2019-01-11T05:21:46.445Z,9.57
2019-01-11T05:24:15.969Z,15.60
2019-01-11T05:26:45.437Z,12.07
2019-01-11T05:29:16.564Z,12.10
2019-01-11T05:31:47.815Z,12.10
2019-01-11T05:34:17.314Z,8.50
2019-01-11T05:36:46.856Z,10.43
2019-01-11T05:44:36.790Z,12.30
2019-01-11T05:47:25.772Z,13.57
2019-01-11T05:49:56.040Z,7.80
2019-01-11T05:52:25.928Z,9.58
2019-01-11T05:54:56.011Z,13.45
2019-01-11T05:57:25.969Z,10.23
2019-01-11T05:59:56.526Z,12.75
2019-01-11T06:02:45.107Z,15.50
2019-01-11T06:05:14.599Z,10.50
2019-01-11T06:07:49.716Z,11.23
2019-01-11T06:10:19.222Z,14.10
2019-01-11T06:12:48.725Z,15.23
2019-01-11T06:15:18.219Z,13.97
2019-01-11T06:17:47.729Z,13.80
2019-01-11T06:20:38.086Z,12.43
2019-01-11T06:23:07.663Z,19.97
2019-01-11T06:25:37.133Z,14.17
2019-01-11T06:28:06.623Z,9.50
2019-01-11T06:30:36.115Z,10.48
2019-01-11T06:33:05.716Z,15.63
2019-01-11T06:35:35.867Z,14.03
2019-01-11T06:38:05.492Z,17.00
2019-01-11T06:40:35.065Z,10.15
2019-01-11T06:43:04.695Z,10.10
2019-01-11T06:45:34.187Z,10.63
2019-01-11T06:51:18.541Z,17.00
2019-01-11T06:53:48.110Z,18.00
2019-01-11T06:59:10.154Z,17.60
2019-01-11T07:01:39.805Z,13.87
2019-01-11T07:04:09.296Z,12.70
2019-01-11T07:06:38.869Z,12.80
2019-01-11T07:12:15.927Z,18.60
2019-01-11T07:14:57.162Z,11.45
2019-01-11T07:17:26.662Z,17.23
2019-01-11T07:19:56.210Z,15.30
2019-01-11T07:22:38.196Z,12.30
2019-01-11T07:25:08.138Z,16.57
2019-01-11T07:30:56.356Z,18.55
2019-01-11T07:33:25.862Z,13.83
2019-01-11T07:38:45.679Z,16.57
2019-01-11T07:41:15.229Z,12.80
2019-01-11T07:43:44.762Z,18.50
2019-01-11T07:46:14.240Z,19.80
2019-01-11T07:48:49.705Z,18.47
2019-01-11T07:51:38.435Z,17.63
2019-01-11T07:54:08.031Z,16.77
2019-01-11T07:56:37.521Z,19.27
2019-01-11T07:59:07.104Z,23.53
2019-01-11T08:04:45.946Z,25.57
2019-01-11T08:07:15.456Z,14.60
2019-01-11T08:12:40.613Z,17.90
2019-01-11T08:15:10.287Z,18.93
2019-01-11T08:17:39.816Z,19.53
2019-01-11T08:20:09.900Z,18.07
2019-01-11T08:22:58.509Z,17.73
2019-01-11T08:25:28.045Z,19.00
2019-01-11T08:27:57.564Z,27.97
2019-01-11T08:33:18.620Z,22.63
2019-01-11T08:36:06.071Z,15.90
2019-01-11T08:38:35.588Z,24.13
2019-01-11T08:41:05.056Z,23.53
2019-01-11T08:43:34.559Z,25.87
2019-01-11T08:46:04.102Z,15.53
2019-01-11T08:48:33.604Z,25.53
2019-01-11T08:51:22.443Z,29.48
2019-01-11T08:53:51.943Z,26.07
2019-01-11T08:56:21.424Z,23.63
2019-01-11T08:58:50.945Z,27.47
2019-01-11T09:01:20.439Z,25.30
2019-01-11T09:03:49.957Z,21.97
2019-01-11T09:09:28.752Z,27.90
2019-01-11T09:11:58.252Z,17.23
2019-01-11T09:14:46.825Z,16.93
2019-01-11T09:23:12.721Z,21.60
2019-01-11T09:25:42.231Z,26.55
2019-01-11T09:28:11.708Z,17.40
2019-01-11T09:30:41.373Z,24.40
2019-01-11T09:33:10.858Z,30.77
2019-01-11T09:35:40.460Z,22.53
2019-01-11T09:38:10.065Z,20.37
2019-01-11T09:40:39.530Z,26.77
2019-01-11T09:43:09.004Z,18.37
2019-01-11T09:45:38.595Z,24.80
2019-01-11T09:48:08.142Z,18.97
2019-01-11T09:50:37.648Z,20.43
2019-01-11T09:53:07.124Z,23.70
2019-01-11T09:58:31.306Z,18.60
2019-01-11T10:03:55.259Z,22.50
2019-01-11T10:09:06.759Z,19.53
2019-01-11T10:11:36.274Z,21.80
2019-01-11T10:14:05.855Z,15.67
2019-01-11T10:16:35.330Z,17.37
2019-01-11T10:19:04.913Z,17.73
2019-01-11T10:21:34.396Z,23.60
2019-01-11T10:24:04.087Z,21.47
2019-01-11T10:26:33.561Z,21.73
2019-01-11T10:29:03.138Z,15.38
2019-01-11T10:31:32.648Z,26.10
2019-01-11T10:34:02.137Z,25.75
2019-01-11T10:36:31.642Z,17.57
2019-01-11T10:39:01.109Z,28.47
2019-01-11T10:41:32.256Z,25.93
2019-01-11T10:47:03.850Z,26.67
2019-01-11T10:49:33.348Z,19.43
2019-01-11T10:52:02.973Z,20.32
2019-01-11T10:54:51.517Z,28.57
2019-01-11T10:57:20.989Z,22.57
2019-01-11T10:59:50.508Z,25.80
2019-01-11T11:02:19.987Z,22.37
2019-01-11T11:04:49.562Z,20.40
2019-01-11T11:07:19.072Z,21.37
2019-01-11T11:09:48.571Z,16.00
2019-01-11T11:12:29.750Z,18.60
2019-01-11T11:17:40.292Z,15.13
2019-01-11T11:20:12.170Z,21.20
2019-01-11T11:22:41.703Z,14.57
2019-01-11T11:25:13.137Z,15.07
2019-01-11T11:27:42.606Z,16.77
2019-01-11T11:30:13.408Z,15.88
2019-01-11T11:33:01.944Z,18.53
2019-01-11T11:35:31.911Z,11.27
2019-01-11T11:38:01.538Z,13.10
2019-01-11T11:40:31.877Z,15.80
2019-01-11T11:45:43.093Z,15.03
2019-01-11T11:48:12.566Z,15.80
2019-01-11T11:50:42.064Z,26.57
2019-01-11T11:53:11.545Z,11.83
2019-01-11T11:55:41.142Z,19.20
2019-01-11T11:58:10.634Z,14.17
2019-01-11T12:00:40.138Z,22.30
2019-01-11T12:03:09.624Z,19.53
2019-01-11T12:05:39.139Z,15.90
2019-01-11T12:08:08.634Z,15.47
2019-01-11T12:10:38.127Z,13.10
2019-01-11T12:13:07.639Z,19.43
2019-01-11T12:15:37.144Z,17.03
2019-01-11T12:18:06.651Z,20.03
2019-01-11T12:20:36.278Z,15.97
2019-01-11T12:23:05.782Z,15.40
2019-01-11T12:25:35.282Z,19.07
2019-01-11T12:28:04.885Z,15.97
2019-01-11T12:30:34.358Z,19.90
2019-01-11T12:33:22.971Z,13.20
2019-01-11T12:35:52.544Z,13.30
2019-01-11T12:38:22.066Z,15.70
2019-01-11T12:40:51.543Z,17.87
2019-01-11T12:43:21.057Z,19.70
2019-01-11T12:45:50.543Z,11.90
2019-01-11T12:48:20.062Z,15.20
2019-01-11T12:50:49.625Z,8.53
2019-01-11T12:53:19.126Z,10.60
2019-01-11T12:55:48.626Z,8.85
2019-01-11T12:58:18.119Z,8.77
2019-01-11T13:01:06.856Z,8.87
2019-01-11T13:03:36.364Z,13.00
2019-01-11T13:06:05.945Z,8.17
2019-01-11T13:08:35.477Z,12.18
2019-01-11T13:11:05.103Z,10.67
2019-01-11T13:13:34.799Z,10.23
2019-01-11T13:16:04.516Z,12.53
2019-01-11T13:18:34.193Z,12.93
2019-01-11T13:21:03.756Z,8.50
2019-01-11T13:23:33.420Z,7.43
2019-01-11T13:26:03.051Z,4.33
2019-01-11T13:28:32.564Z,6.90
2019-01-11T13:34:04.870Z,9.10
2019-01-11T13:36:46.057Z,7.00
2019-01-11T13:39:27.837Z,6.10
2019-01-11T13:41:57.332Z,8.10
2019-01-11T13:44:26.848Z,10.60
2019-01-11T13:46:56.494Z,5.47
2019-01-11T13:49:26.049Z,10.80
2019-01-11T13:51:55.533Z,5.75
2019-01-11T13:54:44.967Z,5.12
2019-01-11T13:57:15.044Z,6.37
2019-01-11T13:59:45.198Z,3.37
2019-01-11T14:02:15.259Z,2.92
2019-01-11T14:04:45.277Z,3.05
2019-01-11T14:07:15.318Z,3.85
2019-01-11T14:09:45.140Z,1.60
2019-01-11T14:12:15.207Z,2.05
2019-01-11T14:14:45.034Z,2.15
2019-01-11T14:17:15.182Z,1.70
2019-01-11T14:19:45.051Z,2.17
2019-01-11T14:22:15.150Z,2.25
2019-01-11T14:24:45.171Z,4.37
2019-01-11T14:27:15.273Z,2.90
2019-01-11T14:29:45.339Z,4.03
2019-01-11T14:35:16.997Z,2.73
2019-01-11T14:37:46.649Z,3.97
2019-01-11T14:40:16.424Z,4.80
2019-01-11T14:42:47.623Z,3.90
2019-01-11T14:45:36.376Z,2.47
2019-01-11T14:48:06.016Z,3.07
2019-01-11T14:53:37.820Z,2.50
2019-01-11T14:56:07.515Z,2.33
2019-01-11T14:58:37.086Z,4.03
2019-01-11T15:01:06.689Z,2.43
2019-01-11T15:03:36.261Z,8.43
2019-01-11T15:06:06.093Z,6.10
2019-01-11T15:08:37.065Z,5.33
2019-01-11T15:11:26.093Z,1.80
2019-01-11T15:13:55.609Z,5.00
2019-01-11T15:16:25.324Z,2.98
2019-01-11T15:18:56.492Z,6.77
2019-01-11T15:21:26.069Z,4.10
2019-01-11T15:23:55.615Z,1.60
2019-01-11T15:26:25.101Z,3.40
2019-01-11T15:28:54.617Z,2.50
2019-01-11T15:31:24.088Z,3.05
2019-01-11T15:33:53.695Z,2.33
2019-01-11T15:36:44.156Z,3.50
2019-01-11T15:39:13.723Z,3.40
2019-01-11T15:41:43.198Z,2.10
2019-01-11T15:44:12.703Z,4.07
2019-01-11T15:46:42.183Z,3.03
2019-01-11T15:49:11.686Z,2.20
2019-01-11T15:51:41.156Z,1.70
2019-01-11T15:54:10.666Z,2.43
2019-01-11T15:56:40.193Z,1.60
2019-01-11T15:59:09.712Z,2.03
2019-01-11T16:01:39.228Z,2.00
2019-01-11T16:04:09.116Z,2.93
2019-01-11T16:06:59.026Z,2.63
2019-01-11T16:10:08.765Z,1.10
2019-01-11T16:13:03.320Z,1.13
2019-01-11T16:16:11.374Z,2.23
2019-01-11T16:18:40.890Z,1.80
2019-01-11T16:21:10.390Z,3.23
2019-01-11T16:26:34.041Z,2.60
2019-01-11T16:29:03.547Z,2.40
2019-01-11T16:31:33.093Z,5.60
2019-01-11T16:34:02.611Z,2.77
2019-01-11T16:36:32.140Z,2.33
2019-01-11T16:39:03.507Z,5.10
2019-01-11T16:41:34.618Z,2.40
2019-01-11T16:44:04.211Z,1.57
2019-01-11T16:46:33.714Z,3.07
2019-01-11T16:49:04.913Z,2.60
2019-01-11T16:51:34.396Z,5.33
2019-01-11T16:54:23.145Z,5.58
2019-01-11T16:56:52.619Z,1.70
2019-01-11T16:59:22.107Z,4.30
2019-01-11T17:01:51.596Z,3.30
2019-01-11T17:04:21.108Z,3.20
2019-01-11T17:06:50.583Z,2.87
2019-01-11T17:09:20.084Z,2.73
2019-01-11T17:11:49.543Z,1.43
2019-01-11T17:14:19.060Z,4.70
2019-01-11T17:16:48.534Z,7.40
2019-01-11T17:19:18.028Z,3.53
2019-01-11T17:21:47.508Z,2.20
2019-01-11T17:24:17.091Z,3.30
2019-01-11T17:26:46.863Z,4.03
2019-01-11T17:29:17.490Z,4.62
2019-01-11T17:32:07.295Z,10.40
2019-01-11T17:34:38.646Z,3.27
2019-01-11T17:37:08.132Z,4.80
2019-01-11T17:39:37.994Z,4.33
2019-01-11T17:42:07.514Z,3.87
2019-01-11T17:44:37.091Z,6.10
2019-01-11T17:47:06.642Z,7.50
2019-01-11T17:49:36.571Z,9.00
2019-01-11T17:52:06.075Z,15.43
2019-01-11T17:54:35.647Z,4.70
2019-01-11T17:57:05.194Z,4.77
2019-01-11T17:59:34.719Z,14.13
2019-01-11T18:02:04.343Z,9.18
2019-01-11T18:04:34.016Z,5.27
2019-01-11T18:07:03.853Z,6.67
2019-01-11T18:09:33.352Z,8.70
2019-01-11T18:12:02.919Z,10.83
2019-01-11T18:14:32.493Z,6.73
2019-01-11T18:17:02.327Z,6.93
2019-01-11T18:19:31.924Z,10.63
2019-01-11T18:22:01.487Z,10.07
2019-01-11T18:24:31.314Z,9.30
2019-01-11T18:27:19.905Z,13.50
2019-01-11T18:29:49.476Z,9.30
2019-01-11T18:32:42.752Z,5.43
2019-01-11T18:35:12.844Z,2.63
2019-01-11T18:38:04.900Z,7.75
2019-01-11T18:40:36.836Z,8.67
2019-01-11T18:43:06.408Z,7.70
2019-01-11T18:45:35.926Z,10.13
2019-01-11T18:48:05.621Z,12.03
2019-01-11T18:50:35.233Z,21.27
2019-01-11T18:53:04.852Z,14.00
2019-01-11T18:55:34.317Z,9.17
2019-01-11T18:58:16.181Z,9.03
2019-01-11T19:00:45.721Z,7.28
2019-01-11T19:03:15.223Z,8.45
2019-01-11T19:05:44.747Z,7.10
2019-01-11T19:08:14.500Z,20.40
2019-01-11T19:10:44.345Z,14.93
2019-01-11T19:13:14.092Z,12.17
2019-01-11T19:16:03.080Z,10.97
2019-01-11T19:18:32.728Z,6.20
2019-01-11T19:21:15.122Z,13.77
2019-01-11T19:24:05.553Z,18.23
2019-01-11T19:26:35.292Z,4.50
2019-01-11T19:32:25.540Z,16.63
2019-01-11T19:34:55.101Z,11.65
2019-01-11T19:37:24.850Z,10.10
2019-01-11T19:39:54.528Z,10.27
2019-01-11T19:42:43.609Z,14.23
2019-01-11T19:45:13.489Z,21.60
2019-01-11T19:47:43.306Z,7.70
2019-01-11T19:50:16.931Z,10.73
2019-01-11T19:53:27.744Z,10.67
2019-01-11T19:56:03.879Z,12.53
2019-01-11T19:58:33.742Z,7.43
2019-01-11T20:01:15.494Z,11.67
2019-01-11T20:03:45.123Z,9.50
2019-01-11T20:06:15.005Z,13.22
2019-01-11T20:08:44.528Z,7.10
2019-01-11T20:11:14.173Z,7.30
2019-01-11T20:13:43.758Z,22.07
2019-01-11T20:16:13.376Z,13.15
2019-01-11T20:18:42.976Z,14.13
2019-01-11T20:21:12.652Z,10.13
2019-01-11T20:23:42.412Z,14.50
2019-01-11T20:26:12.206Z,9.47
2019-01-11T20:29:01.099Z,8.80
2019-01-11T20:31:30.879Z,10.80
2019-01-11T20:34:00.585Z,11.80
2019-01-11T20:36:59.138Z,9.37
2019-01-11T20:39:28.790Z,15.03
2019-01-11T20:41:58.455Z,19.30
2019-01-11T20:44:28.288Z,12.40
2019-01-11T20:46:58.129Z,18.07
2019-01-11T20:49:27.797Z,20.97
2019-01-11T20:51:57.514Z,19.10
2019-01-11T20:54:27.168Z,8.67
2019-01-11T20:56:56.764Z,8.57
2019-01-11T20:59:26.230Z,11.67
2019-01-11T21:01:55.840Z,8.07
2019-01-11T21:04:25.339Z,17.23
2019-01-11T21:06:55.090Z,13.57
2019-01-11T21:09:25.076Z,16.55
2019-01-11T21:11:55.219Z,21.73
2019-01-11T21:14:25.393Z,18.07
2019-01-11T21:16:55.230Z,12.88
2019-01-11T21:19:25.280Z,13.98
2019-01-11T21:21:55.280Z,15.10
2019-01-11T21:24:25.263Z,18.67
2019-01-11T21:26:55.314Z,15.55
2019-01-11T21:29:25.406Z,12.13
2019-01-11T21:31:55.466Z,17.70
2019-01-11T21:34:25.301Z,14.90
2019-01-11T21:36:55.381Z,15.55
2019-01-11T21:39:25.453Z,12.65
2019-01-11T21:41:55.712Z,15.13
2019-01-11T21:44:25.595Z,11.88
2019-01-11T21:46:55.778Z,19.25
2019-01-11T21:52:26.677Z,10.60
2019-01-11T21:54:56.275Z,8.28
2019-01-11T21:57:26.001Z,18.93
2019-01-11T21:59:55.665Z,17.70
2019-01-11T22:02:25.619Z,7.95
2019-01-11T22:04:55.538Z,8.20
2019-01-11T22:07:25.530Z,17.73
2019-01-11T22:09:55.969Z,11.93
2019-01-11T22:15:40.992Z,8.70
2019-01-11T22:18:10.755Z,12.07
2019-01-11T22:20:40.454Z,13.45
2019-01-11T22:23:10.280Z,7.43
2019-01-11T22:25:39.937Z,10.63
2019-01-11T22:28:09.673Z,12.28
2019-01-11T22:30:39.485Z,13.43
2019-01-11T22:33:08.971Z,4.33
2019-01-11T22:35:38.475Z,15.67
2019-01-11T22:38:27.424Z,12.63
2019-01-11T22:40:57.206Z,17.83
2019-01-11T22:43:27.207Z,12.13
2019-01-11T22:45:57.106Z,16.93
2019-01-11T22:48:27.195Z,26.63
2019-01-11T22:50:56.827Z,54.73
2019-01-11T22:53:26.478Z,11.93
2019-01-11T22:55:56.033Z,15.90
2019-01-11T22:58:25.895Z,12.40
2019-01-11T23:01:20.490Z,14.95
2019-01-11T23:04:10.906Z,11.90
2019-01-11T23:07:05.079Z,10.30
2019-01-11T23:09:56.652Z,14.47
2019-01-11T23:12:52.345Z,19.10
2019-01-11T23:15:42.946Z,12.33
2019-01-11T23:18:32.425Z,13.10
2019-01-11T23:21:04.558Z,18.37
2019-01-11T23:23:34.065Z,17.17
2019-01-11T23:26:03.590Z,12.47
2019-01-11T23:28:33.202Z,20.30
2019-01-11T23:37:07.087Z,15.58
2019-01-11T23:39:36.593Z,14.38
2019-01-11T23:42:06.097Z,17.03
2019-01-11T23:44:35.588Z,14.50
2019-01-11T23:47:05.292Z,9.90
2019-01-11T23:49:34.769Z,21.90
2019-01-11T23:52:04.324Z,10.53
2019-01-11T23:54:33.878Z,12.28
2019-01-11T23:57:03.468Z,17.27
2019-01-11T23:59:32.998Z,12.53
